KSQLKWVI

Guest
Details From KSQL - San Carlos
To KWVI - WATSONVILLE MUNI
Flight Number -
Tags generated
Created
Modified
Stats Distance 43 nm / 80 km
Max Altitude 1,400 ft / 427 m
Waypoints 3
Social Downloads 3
Likes 0
Share VATSIM

Download

Looking for another format? Having issues loading an existing format? Contact us
Advertisement - Login to hide

Notes

Basic altitude profile: - Ascent Rate: 500ft/min - Ascent Speed: 120kts - Cruise Altitude: 5000ft - Cruise Speed: 150kts - Descent Rate: 500ft/min - Descent Speed: 150kts

Route

KSQL OSI KWVI

ID Type Via Altitude Latitude Longitude Leg Dist Tot Dist Heading (true) Name
O KSQL APT - 0 ft / 0 m 37.51173˚ -122.24939˚ - 0 nm - San Carlos
OSI VOR - 1,400 ft / 427 m 37.39250˚ -122.28131˚ 7 nm 7 nm 192° / 192° WOODSIDE VORTAC
O KWVI APT - 0 ft / 0 m 36.93582˚ -121.78951˚ 36 nm 43 nm 139° / 140° WATSONVILLE MUNI

Altitude Profile

Advertisement - Login to hide

KSQL

Details ICAO KSQL (SQL)
Name San Carlos
Region United States
Timezone America/Los_Angeles (UTC-8.0)
Stats Elevation 5 ft / 2 m (AMSL)
Location 37.511735° -122.249386°
Runways 1
Magnetic Variation 13.421° E

METAR

KSQL 141035Z AUTO 00000KT 10SM BKN003 07/03 A3006 RMK AO2

Decode

TAF

Not found

Departure Runways

ID Width Length Bearing (true) Bearing (mag) Surface Threshold Offset Overrun Length
12 75 ft / 23 m 2,619 ft / 798 m 138.39° 124.97° Asphalt 0 ft / 0 m 299 ft / 91 m
30 75 ft / 23 m 2,619 ft / 798 m 318.40° 304.98° Asphalt 0 ft / 0 m 135 ft / 41 m

KWVI

Details ICAO KWVI
Name WATSONVILLE MUNI
Region United States
Timezone America/Los_Angeles (UTC-8.0)
Stats Elevation 163 ft / 50 m (AMSL)
Location 36.935825° -121.789511°
Runways 2
Magnetic Variation 13.225° E

METAR

KWVI 140953Z AUTO 00000KT 10SM CLR 06/01 A3005 RMK AO2 SLP176 T00560011

Decode

TAF

Not found

Destination Runways

ID Width Length Bearing (true) Bearing (mag) Surface Threshold Offset Overrun Length
02 150 ft / 46 m 4,505 ft / 1,373 m 32.21° 18.98° Asphalt 0 ft / 0 m 0 ft / 0 m
08 100 ft / 30 m 3,992 ft / 1,217 m 99.87° 86.64° Asphalt 0 ft / 0 m 0 ft / 0 m
20 150 ft / 46 m 4,505 ft / 1,373 m 212.22° 198.99° Asphalt 590 ft / 180 m 0 ft / 0 m
26 100 ft / 30 m 3,992 ft / 1,217 m 279.87° 266.64° Asphalt 0 ft / 0 m 0 ft / 0 m

Approach Navaids

Runway Type Ident Frequency Range Bearing (true) Bearing (mag) Slope Elevation
02 Localiser IAYN 108.30 MHz 18 nm / 33 km 32.21° 18.99° - 159 ft / 48 m (AMSL)

Popular Alternatives